sensor_id;sensor_type;location;lat;lon;timestamp;P1;durP1;ratioP1;P2;durP2;ratioP2
56425;SDS011;42330;43.620;3.856;2022-07-23T00:00:48;10.40;;;4.28;;
56425;SDS011;42330;43.620;3.856;2022-07-23T00:03:14;8.55;;;4.22;;
56425;SDS011;42330;43.620;3.856;2022-07-23T00:05:40;8.75;;;4.45;;
56425;SDS011;42330;43.620;3.856;2022-07-23T00:08:06;9.63;;;4.00;;
56425;SDS011;42330;43.620;3.856;2022-07-23T00:10:32;8.63;;;4.32;;
56425;SDS011;42330;43.620;3.856;2022-07-23T00:12:58;8.55;;;4.03;;
56425;SDS011;42330;43.620;3.856;2022-07-23T00:15:24;8.07;;;3.80;;
56425;SDS011;42330;43.620;3.856;2022-07-23T00:17:50;8.23;;;4.18;;
56425;SDS011;42330;43.620;3.856;2022-07-23T00:20:16;10.57;;;3.78;;
56425;SDS011;42330;43.620;3.856;2022-07-23T00:22:49;9.73;;;4.13;;
56425;SDS011;42330;43.620;3.856;2022-07-23T00:25:16;6.55;;;3.70;;
56425;SDS011;42330;43.620;3.856;2022-07-23T00:27:41;7.82;;;3.90;;
56425;SDS011;42330;43.620;3.856;2022-07-23T00:30:08;7.63;;;3.70;;
56425;SDS011;42330;43.620;3.856;2022-07-23T00:32:47;10.05;;;4.07;;
56425;SDS011;42330;43.620;3.856;2022-07-23T00:35:14;6.32;;;3.60;;
56425;SDS011;42330;43.620;3.856;2022-07-23T00:37:41;8.10;;;4.10;;
56425;SDS011;42330;43.620;3.856;2022-07-23T00:40:07;7.13;;;3.95;;
56425;SDS011;42330;43.620;3.856;2022-07-23T00:42:34;8.18;;;3.90;;
56425;SDS011;42330;43.620;3.856;2022-07-23T00:45:00;6.97;;;3.90;;
56425;SDS011;42330;43.620;3.856;2022-07-23T00:47:25;9.38;;;3.70;;
56425;SDS011;42330;43.620;3.856;2022-07-23T00:49:51;8.40;;;3.80;;
56425;SDS011;42330;43.620;3.856;2022-07-23T00:52:17;8.88;;;3.95;;
56425;SDS011;42330;43.620;3.856;2022-07-23T00:54:42;6.60;;;3.72;;
56425;SDS011;42330;43.620;3.856;2022-07-23T00:57:08;7.60;;;3.60;;
56425;SDS011;42330;43.620;3.856;2022-07-23T00:59:34;8.32;;;3.72;;
56425;SDS011;42330;43.620;3.856;2022-07-23T01:02:00;9.43;;;3.60;;
56425;SDS011;42330;43.620;3.856;2022-07-23T01:04:25;6.72;;;3.22;;
56425;SDS011;42330;43.620;3.856;2022-07-23T01:06:51;8.10;;;3.58;;
56425;SDS011;42330;43.620;3.856;2022-07-23T01:09:17;8.10;;;3.55;;
56425;SDS011;42330;43.620;3.856;2022-07-23T01:11:43;10.70;;;3.47;;
56425;SDS011;42330;43.620;3.856;2022-07-23T01:14:10;8.07;;;3.67;;
56425;SDS011;42330;43.620;3.856;2022-07-23T01:16:41;6.15;;;3.38;;
56425;SDS011;42330;43.620;3.856;2022-07-23T01:19:08;6.65;;;3.40;;
56425;SDS011;42330;43.620;3.856;2022-07-23T01:21:39;6.60;;;3.60;;
56425;SDS011;42330;43.620;3.856;2022-07-23T01:24:09;9.05;;;3.47;;
56425;SDS011;42330;43.620;3.856;2022-07-23T01:26:35;7.13;;;3.60;;
56425;SDS011;42330;43.620;3.856;2022-07-23T01:29:02;6.57;;;3.40;;
56425;SDS011;42330;43.620;3.856;2022-07-23T01:31:28;10.18;;;3.10;;
56425;SDS011;42330;43.620;3.856;2022-07-23T01:33:53;7.30;;;3.45;;
56425;SDS011;42330;43.620;3.856;2022-07-23T01:36:19;6.40;;;3.67;;
56425;SDS011;42330;43.620;3.856;2022-07-23T01:38:45;7.10;;;3.60;;
56425;SDS011;42330;43.620;3.856;2022-07-23T01:41:10;5.30;;;3.08;;
56425;SDS011;42330;43.620;3.856;2022-07-23T01:43:36;6.30;;;3.30;;
56425;SDS011;42330;43.620;3.856;2022-07-23T01:46:02;8.35;;;3.40;;
56425;SDS011;42330;43.620;3.856;2022-07-23T01:48:27;8.20;;;3.13;;
56425;SDS011;42330;43.620;3.856;2022-07-23T01:50:53;6.35;;;3.45;;
56425;SDS011;42330;43.620;3.856;2022-07-23T01:53:19;8.10;;;3.20;;
56425;SDS011;42330;43.620;3.856;2022-07-23T01:55:45;7.47;;;3.38;;
56425;SDS011;42330;43.620;3.856;2022-07-23T01:58:10;7.15;;;3.03;;
56425;SDS011;42330;43.620;3.856;2022-07-23T02:00:36;10.48;;;3.30;;
56425;SDS011;42330;43.620;3.856;2022-07-23T02:03:02;8.20;;;3.30;;
56425;SDS011;42330;43.620;3.856;2022-07-23T02:05:28;7.07;;;2.90;;
56425;SDS011;42330;43.620;3.856;2022-07-23T02:07:55;6.50;;;3.10;;
56425;SDS011;42330;43.620;3.856;2022-07-23T02:10:21;5.40;;;3.08;;
56425;SDS011;42330;43.620;3.856;2022-07-23T02:12:47;8.68;;;3.17;;
56425;SDS011;42330;43.620;3.856;2022-07-23T02:15:13;6.28;;;3.25;;
56425;SDS011;42330;43.620;3.856;2022-07-23T02:17:38;8.43;;;3.30;;
56425;SDS011;42330;43.620;3.856;2022-07-23T02:20:05;8.80;;;3.00;;
56425;SDS011;42330;43.620;3.856;2022-07-23T02:22:31;5.85;;;3.42;;
56425;SDS011;42330;43.620;3.856;2022-07-23T02:24:57;10.65;;;3.40;;
56425;SDS011;42330;43.620;3.856;2022-07-23T02:27:23;6.85;;;2.95;;
56425;SDS011;42330;43.620;3.856;2022-07-23T02:29:49;6.88;;;3.20;;
56425;SDS011;42330;43.620;3.856;2022-07-23T02:32:14;10.55;;;3.30;;
56425;SDS011;42330;43.620;3.856;2022-07-23T02:34:40;5.88;;;2.90;;
56425;SDS011;42330;43.620;3.856;2022-07-23T02:37:06;6.15;;;3.00;;
56425;SDS011;42330;43.620;3.856;2022-07-23T02:39:33;5.50;;;2.88;;
56425;SDS011;42330;43.620;3.856;2022-07-23T02:41:59;5.38;;;2.80;;
56425;SDS011;42330;43.620;3.856;2022-07-23T02:44:25;7.30;;;2.95;;
56425;SDS011;42330;43.620;3.856;2022-07-23T02:46:51;4.82;;;2.78;;
56425;SDS011;42330;43.620;3.856;2022-07-23T02:49:16;8.52;;;2.83;;
56425;SDS011;42330;43.620;3.856;2022-07-23T02:51:42;5.47;;;2.60;;
56425;SDS011;42330;43.620;3.856;2022-07-23T02:54:08;10.10;;;3.17;;
56425;SDS011;42330;43.620;3.856;2022-07-23T02:56:33;7.10;;;2.53;;
56425;SDS011;42330;43.620;3.856;2022-07-23T02:58:59;7.03;;;2.45;;
56425;SDS011;42330;43.620;3.856;2022-07-23T03:01:25;5.95;;;2.78;;
56425;SDS011;42330;43.620;3.856;2022-07-23T03:03:50;8.88;;;2.90;;
56425;SDS011;42330;43.620;3.856;2022-07-23T03:06:16;8.45;;;2.70;;
56425;SDS011;42330;43.620;3.856;2022-07-23T03:08:42;5.43;;;2.60;;
56425;SDS011;42330;43.620;3.856;2022-07-23T03:11:07;8.60;;;2.70;;
56425;SDS011;42330;43.620;3.856;2022-07-23T03:13:36;5.93;;;2.67;;
56425;SDS011;42330;43.620;3.856;2022-07-23T03:16:03;5.30;;;2.55;;
56425;SDS011;42330;43.620;3.856;2022-07-23T03:18:29;6.63;;;2.70;;
56425;SDS011;42330;43.620;3.856;2022-07-23T03:20:54;6.03;;;2.80;;
56425;SDS011;42330;43.620;3.856;2022-07-23T03:23:20;7.28;;;2.80;;
56425;SDS011;42330;43.620;3.856;2022-07-23T03:25:46;4.93;;;2.35;;
56425;SDS011;42330;43.620;3.856;2022-07-23T03:28:13;5.93;;;3.17;;
56425;SDS011;42330;43.620;3.856;2022-07-23T03:30:41;7.00;;;2.70;;
56425;SDS011;42330;43.620;3.856;2022-07-23T03:33:07;6.15;;;2.80;;
56425;SDS011;42330;43.620;3.856;2022-07-23T03:35:33;5.22;;;2.53;;
56425;SDS011;42330;43.620;3.856;2022-07-23T03:37:59;4.40;;;2.45;;
56425;SDS011;42330;43.620;3.856;2022-07-23T03:40:25;6.50;;;2.60;;
56425;SDS011;42330;43.620;3.856;2022-07-23T03:42:50;5.43;;;2.78;;
56425;SDS011;42330;43.620;3.856;2022-07-23T03:45:16;7.32;;;2.92;;
56425;SDS011;42330;43.620;3.856;2022-07-23T03:47:41;4.93;;;2.30;;
56425;SDS011;42330;43.620;3.856;2022-07-23T03:50:08;5.88;;;2.65;;
56425;SDS011;42330;43.620;3.856;2022-07-23T03:52:34;7.60;;;2.67;;
56425;SDS011;42330;43.620;3.856;2022-07-23T03:55:00;7.45;;;2.92;;
56425;SDS011;42330;43.620;3.856;2022-07-23T03:57:27;5.55;;;2.60;;
56425;SDS011;42330;43.620;3.856;2022-07-23T03:59:53;6.38;;;2.70;;
56425;SDS011;42330;43.620;3.856;2022-07-23T04:02:18;6.07;;;2.45;;
56425;SDS011;42330;43.620;3.856;2022-07-23T04:04:44;6.00;;;2.47;;
56425;SDS011;42330;43.620;3.856;2022-07-23T04:07:10;6.13;;;2.80;;
56425;SDS011;42330;43.620;3.856;2022-07-23T04:09:35;5.47;;;2.78;;
56425;SDS011;42330;43.620;3.856;2022-07-23T04:12:01;6.07;;;3.00;;
56425;SDS011;42330;43.620;3.856;2022-07-23T04:14:27;7.25;;;2.83;;
56425;SDS011;42330;43.620;3.856;2022-07-23T04:16:52;7.75;;;3.35;;
56425;SDS011;42330;43.620;3.856;2022-07-23T04:19:18;7.07;;;2.80;;
56425;SDS011;42330;43.620;3.856;2022-07-23T04:21:44;7.13;;;3.28;;
56425;SDS011;42330;43.620;3.856;2022-07-23T04:24:09;8.88;;;2.70;;
56425;SDS011;42330;43.620;3.856;2022-07-23T04:26:35;11.10;;;3.17;;
56425;SDS011;42330;43.620;3.856;2022-07-23T04:29:00;8.13;;;2.85;;
56425;SDS011;42330;43.620;3.856;2022-07-23T04:31:26;5.82;;;2.63;;
56425;SDS011;42330;43.620;3.856;2022-07-23T04:33:52;7.63;;;3.10;;
56425;SDS011;42330;43.620;3.856;2022-07-23T04:36:17;9.15;;;3.05;;
56425;SDS011;42330;43.620;3.856;2022-07-23T04:38:43;5.57;;;2.67;;
56425;SDS011;42330;43.620;3.856;2022-07-23T04:41:08;7.25;;;2.88;;
56425;SDS011;42330;43.620;3.856;2022-07-23T04:43:34;3.83;;;2.70;;
56425;SDS011;42330;43.620;3.856;2022-07-23T04:46:00;5.95;;;2.95;;
56425;SDS011;42330;43.620;3.856;2022-07-23T04:48:25;6.60;;;2.72;;
56425;SDS011;42330;43.620;3.856;2022-07-23T04:50:51;6.18;;;3.00;;
56425;SDS011;42330;43.620;3.856;2022-07-23T04:53:17;6.07;;;3.13;;
56425;SDS011;42330;43.620;3.856;2022-07-23T04:55:43;8.35;;;2.88;;
56425;SDS011;42330;43.620;3.856;2022-07-23T04:58:09;6.35;;;2.90;;
56425;SDS011;42330;43.620;3.856;2022-07-23T05:00:35;6.90;;;2.80;;
56425;SDS011;42330;43.620;3.856;2022-07-23T05:03:00;8.23;;;3.10;;
56425;SDS011;42330;43.620;3.856;2022-07-23T05:05:26;8.02;;;2.70;;
56425;SDS011;42330;43.620;3.856;2022-07-23T05:07:52;5.53;;;2.63;;
56425;SDS011;42330;43.620;3.856;2022-07-23T05:10:18;6.95;;;2.72;;
56425;SDS011;42330;43.620;3.856;2022-07-23T05:12:43;5.78;;;2.35;;
56425;SDS011;42330;43.620;3.856;2022-07-23T05:15:09;5.38;;;2.45;;
56425;SDS011;42330;43.620;3.856;2022-07-23T05:17:35;8.32;;;2.75;;
56425;SDS011;42330;43.620;3.856;2022-07-23T05:20:00;5.07;;;2.60;;
56425;SDS011;42330;43.620;3.856;2022-07-23T05:22:26;9.18;;;2.50;;
56425;SDS011;42330;43.620;3.856;2022-07-23T05:24:52;8.63;;;2.42;;
56425;SDS011;42330;43.620;3.856;2022-07-23T05:27:18;6.90;;;2.50;;
56425;SDS011;42330;43.620;3.856;2022-07-23T05:29:43;7.28;;;2.50;;
56425;SDS011;42330;43.620;3.856;2022-07-23T05:32:09;9.30;;;2.38;;
56425;SDS011;42330;43.620;3.856;2022-07-23T05:34:35;5.43;;;2.40;;
56425;SDS011;42330;43.620;3.856;2022-07-23T05:37:00;7.30;;;2.30;;
56425;SDS011;42330;43.620;3.856;2022-07-23T05:39:26;7.32;;;2.25;;
56425;SDS011;42330;43.620;3.856;2022-07-23T05:41:51;4.55;;;2.17;;
56425;SDS011;42330;43.620;3.856;2022-07-23T05:44:17;5.38;;;2.10;;
56425;SDS011;42330;43.620;3.856;2022-07-23T05:46:43;8.85;;;2.50;;
56425;SDS011;42330;43.620;3.856;2022-07-23T05:49:08;4.82;;;2.22;;
56425;SDS011;42330;43.620;3.856;2022-07-23T05:51:34;7.20;;;2.10;;
56425;SDS011;42330;43.620;3.856;2022-07-23T05:54:00;7.25;;;2.33;;
56425;SDS011;42330;43.620;3.856;2022-07-23T05:56:25;4.43;;;2.30;;
56425;SDS011;42330;43.620;3.856;2022-07-23T05:58:51;6.20;;;2.60;;
56425;SDS011;42330;43.620;3.856;2022-07-23T06:01:17;6.47;;;2.55;;
56425;SDS011;42330;43.620;3.856;2022-07-23T06:03:42;6.05;;;2.20;;
56425;SDS011;42330;43.620;3.856;2022-07-23T06:06:08;5.82;;;2.63;;
56425;SDS011;42330;43.620;3.856;2022-07-23T06:08:33;8.68;;;2.65;;
56425;SDS011;42330;43.620;3.856;2022-07-23T06:10:59;6.00;;;2.50;;
56425;SDS011;42330;43.620;3.856;2022-07-23T06:13:25;7.03;;;2.42;;
56425;SDS011;42330;43.620;3.856;2022-07-23T06:15:50;6.10;;;2.33;;
56425;SDS011;42330;43.620;3.856;2022-07-23T06:18:16;5.63;;;2.10;;
56425;SDS011;42330;43.620;3.856;2022-07-23T06:20:42;5.72;;;2.40;;
56425;SDS011;42330;43.620;3.856;2022-07-23T06:23:08;5.13;;;2.42;;
56425;SDS011;42330;43.620;3.856;2022-07-23T06:25:33;8.90;;;2.50;;
56425;SDS011;42330;43.620;3.856;2022-07-23T06:27:59;5.60;;;2.22;;
56425;SDS011;42330;43.620;3.856;2022-07-23T06:30:25;5.40;;;2.45;;
56425;SDS011;42330;43.620;3.856;2022-07-23T06:32:50;6.57;;;2.70;;
56425;SDS011;42330;43.620;3.856;2022-07-23T06:35:16;4.82;;;2.40;;
56425;SDS011;42330;43.620;3.856;2022-07-23T06:37:42;4.78;;;2.60;;
56425;SDS011;42330;43.620;3.856;2022-07-23T06:40:08;5.25;;;2.10;;
56425;SDS011;42330;43.620;3.856;2022-07-23T06:42:35;6.57;;;2.45;;
56425;SDS011;42330;43.620;3.856;2022-07-23T06:45:04;4.32;;;2.40;;
56425;SDS011;42330;43.620;3.856;2022-07-23T06:47:30;5.35;;;2.40;;
56425;SDS011;42330;43.620;3.856;2022-07-23T06:49:56;5.00;;;1.98;;
56425;SDS011;42330;43.620;3.856;2022-07-23T06:52:21;3.35;;;2.28;;
56425;SDS011;42330;43.620;3.856;2022-07-23T06:54:47;3.75;;;2.53;;
56425;SDS011;42330;43.620;3.856;2022-07-23T06:57:14;6.63;;;2.65;;
56425;SDS011;42330;43.620;3.856;2022-07-23T06:59:39;3.78;;;2.40;;
56425;SDS011;42330;43.620;3.856;2022-07-23T07:02:05;6.32;;;2.30;;
56425;SDS011;42330;43.620;3.856;2022-07-23T07:04:32;4.53;;;2.20;;
56425;SDS011;42330;43.620;3.856;2022-07-23T07:06:57;5.70;;;2.35;;
56425;SDS011;42330;43.620;3.856;2022-07-23T07:09:23;4.82;;;2.40;;
56425;SDS011;42330;43.620;3.856;2022-07-23T07:11:49;4.90;;;2.55;;
56425;SDS011;42330;43.620;3.856;2022-07-23T07:14:14;5.43;;;2.30;;
56425;SDS011;42330;43.620;3.856;2022-07-23T07:16:40;6.53;;;2.38;;
56425;SDS011;42330;43.620;3.856;2022-07-23T07:19:07;4.53;;;2.35;;
56425;SDS011;42330;43.620;3.856;2022-07-23T07:21:32;9.13;;;2.55;;
56425;SDS011;42330;43.620;3.856;2022-07-23T07:23:58;6.00;;;2.28;;
56425;SDS011;42330;43.620;3.856;2022-07-23T07:26:24;4.60;;;2.22;;
56425;SDS011;42330;43.620;3.856;2022-07-23T07:28:49;4.60;;;2.42;;
56425;SDS011;42330;43.620;3.856;2022-07-23T07:31:15;6.22;;;2.38;;
56425;SDS011;42330;43.620;3.856;2022-07-23T07:33:41;3.75;;;2.13;;
56425;SDS011;42330;43.620;3.856;2022-07-23T07:36:07;6.68;;;2.10;;
56425;SDS011;42330;43.620;3.856;2022-07-23T07:38:33;3.70;;;2.20;;
56425;SDS011;42330;43.620;3.856;2022-07-23T07:40:59;3.45;;;1.83;;
56425;SDS011;42330;43.620;3.856;2022-07-23T07:43:25;5.28;;;2.17;;
56425;SDS011;42330;43.620;3.856;2022-07-23T07:45:50;6.32;;;2.22;;
56425;SDS011;42330;43.620;3.856;2022-07-23T07:48:16;4.15;;;2.20;;
56425;SDS011;42330;43.620;3.856;2022-07-23T07:50:42;6.65;;;2.17;;
56425;SDS011;42330;43.620;3.856;2022-07-23T07:53:08;4.10;;;2.13;;
56425;SDS011;42330;43.620;3.856;2022-07-23T07:55:34;6.20;;;2.30;;
56425;SDS011;42330;43.620;3.856;2022-07-23T07:58:00;5.05;;;2.30;;
56425;SDS011;42330;43.620;3.856;2022-07-23T08:00:26;4.25;;;2.22;;
56425;SDS011;42330;43.620;3.856;2022-07-23T08:02:52;5.13;;;2.40;;
56425;SDS011;42330;43.620;3.856;2022-07-23T08:05:22;4.43;;;2.50;;
56425;SDS011;42330;43.620;3.856;2022-07-23T08:07:50;5.10;;;2.50;;
56425;SDS011;42330;43.620;3.856;2022-07-23T08:10:16;5.57;;;2.42;;
56425;SDS011;42330;43.620;3.856;2022-07-23T08:12:44;5.60;;;2.63;;
56425;SDS011;42330;43.620;3.856;2022-07-23T08:15:11;5.65;;;2.45;;
56425;SDS011;42330;43.620;3.856;2022-07-23T08:17:38;5.15;;;2.47;;
56425;SDS011;42330;43.620;3.856;2022-07-23T08:20:05;4.20;;;2.33;;
56425;SDS011;42330;43.620;3.856;2022-07-23T08:22:45;4.68;;;2.30;;
56425;SDS011;42330;43.620;3.856;2022-07-23T08:25:15;3.85;;;2.10;;
56425;SDS011;42330;43.620;3.856;2022-07-23T08:27:44;7.35;;;2.42;;
56425;SDS011;42330;43.620;3.856;2022-07-23T08:30:10;5.03;;;2.30;;
56425;SDS011;42330;43.620;3.856;2022-07-23T08:35:15;3.75;;;1.90;;
56425;SDS011;42330;43.620;3.856;2022-07-23T08:37:41;5.43;;;2.20;;
56425;SDS011;42330;43.620;3.856;2022-07-23T08:40:07;4.72;;;2.15;;
56425;SDS011;42330;43.620;3.856;2022-07-23T08:42:33;3.45;;;2.05;;
56425;SDS011;42330;43.620;3.856;2022-07-23T08:45:03;4.43;;;2.22;;
56425;SDS011;42330;43.620;3.856;2022-07-23T08:47:29;6.72;;;2.42;;
56425;SDS011;42330;43.620;3.856;2022-07-23T08:49:56;4.72;;;2.15;;
56425;SDS011;42330;43.620;3.856;2022-07-23T08:52:23;7.25;;;2.40;;
56425;SDS011;42330;43.620;3.856;2022-07-23T08:54:50;5.28;;;2.33;;
56425;SDS011;42330;43.620;3.856;2022-07-23T08:57:18;5.47;;;2.30;;
56425;SDS011;42330;43.620;3.856;2022-07-23T08:59:44;4.28;;;2.45;;
56425;SDS011;42330;43.620;3.856;2022-07-23T09:02:10;6.82;;;2.38;;
56425;SDS011;42330;43.620;3.856;2022-07-23T09:04:36;6.32;;;2.35;;
56425;SDS011;42330;43.620;3.856;2022-07-23T09:07:03;3.97;;;2.30;;
56425;SDS011;42330;43.620;3.856;2022-07-23T09:09:28;5.60;;;2.50;;
56425;SDS011;42330;43.620;3.856;2022-07-23T09:12:03;5.30;;;2.35;;
56425;SDS011;42330;43.620;3.856;2022-07-23T09:14:40;4.35;;;2.40;;
56425;SDS011;42330;43.620;3.856;2022-07-23T09:17:13;6.13;;;2.30;;
56425;SDS011;42330;43.620;3.856;2022-07-23T09:19:40;5.60;;;2.33;;
56425;SDS011;42330;43.620;3.856;2022-07-23T09:22:20;6.00;;;2.53;;
56425;SDS011;42330;43.620;3.856;2022-07-23T09:25:11;4.10;;;2.55;;
56425;SDS011;42330;43.620;3.856;2022-07-23T09:27:48;4.72;;;2.25;;
56425;SDS011;42330;43.620;3.856;2022-07-23T09:32:40;5.25;;;2.42;;
56425;SDS011;42330;43.620;3.856;2022-07-23T09:35:06;4.45;;;2.55;;
56425;SDS011;42330;43.620;3.856;2022-07-23T09:37:32;8.27;;;2.78;;
56425;SDS011;42330;43.620;3.856;2022-07-23T09:40:05;4.75;;;2.45;;
56425;SDS011;42330;43.620;3.856;2022-07-23T09:42:32;5.13;;;2.70;;
56425;SDS011;42330;43.620;3.856;2022-07-23T09:44:58;5.93;;;2.80;;
56425;SDS011;42330;43.620;3.856;2022-07-23T09:47:25;5.28;;;2.55;;
56425;SDS011;42330;43.620;3.856;2022-07-23T09:52:35;6.20;;;2.47;;
56425;SDS011;42330;43.620;3.856;2022-07-23T09:55:08;6.72;;;2.72;;
56425;SDS011;42330;43.620;3.856;2022-07-23T09:57:35;5.20;;;2.70;;
56425;SDS011;42330;43.620;3.856;2022-07-23T10:00:03;5.13;;;2.85;;
56425;SDS011;42330;43.620;3.856;2022-07-23T10:02:33;9.88;;;3.15;;
56425;SDS011;42330;43.620;3.856;2022-07-23T10:05:00;5.88;;;2.45;;
56425;SDS011;42330;43.620;3.856;2022-07-23T10:07:27;4.88;;;2.75;;
56425;SDS011;42330;43.620;3.856;2022-07-23T10:09:58;6.10;;;3.05;;
56425;SDS011;42330;43.620;3.856;2022-07-23T10:12:25;6.07;;;2.83;;
56425;SDS011;42330;43.620;3.856;2022-07-23T10:15:09;5.55;;;2.80;;
56425;SDS011;42330;43.620;3.856;2022-07-23T10:17:36;4.18;;;2.65;;
56425;SDS011;42330;43.620;3.856;2022-07-23T10:20:02;6.53;;;3.00;;
56425;SDS011;42330;43.620;3.856;2022-07-23T10:22:31;4.88;;;2.65;;
56425;SDS011;42330;43.620;3.856;2022-07-23T10:30:26;5.25;;;2.60;;
56425;SDS011;42330;43.620;3.856;2022-07-23T10:35:44;6.85;;;2.55;;
56425;SDS011;42330;43.620;3.856;2022-07-23T10:41:35;5.90;;;2.60;;
56425;SDS011;42330;43.620;3.856;2022-07-23T10:44:13;5.57;;;2.72;;
56425;SDS011;42330;43.620;3.856;2022-07-23T10:46:58;7.07;;;2.60;;
56425;SDS011;42330;43.620;3.856;2022-07-23T10:49:34;8.57;;;2.60;;
56425;SDS011;42330;43.620;3.856;2022-07-23T10:54:50;6.57;;;2.75;;
56425;SDS011;42330;43.620;3.856;2022-07-23T10:57:19;5.75;;;2.90;;
56425;SDS011;42330;43.620;3.856;2022-07-23T11:02:33;7.25;;;2.65;;
56425;SDS011;42330;43.620;3.856;2022-07-23T11:05:01;4.85;;;2.45;;
56425;SDS011;42330;43.620;3.856;2022-07-23T11:07:29;6.40;;;2.38;;
56425;SDS011;42330;43.620;3.856;2022-07-23T11:09:55;6.35;;;2.47;;
56425;SDS011;42330;43.620;3.856;2022-07-23T11:17:24;6.63;;;2.55;;
56425;SDS011;42330;43.620;3.856;2022-07-23T11:22:37;7.93;;;2.63;;
56425;SDS011;42330;43.620;3.856;2022-07-23T11:25:04;6.28;;;2.63;;
56425;SDS011;42330;43.620;3.856;2022-07-23T11:30:02;4.45;;;2.25;;
56425;SDS011;42330;43.620;3.856;2022-07-23T11:32:30;6.53;;;2.33;;
56425;SDS011;42330;43.620;3.856;2022-07-23T11:34:58;4.13;;;2.15;;
56425;SDS011;42330;43.620;3.856;2022-07-23T11:37:45;6.85;;;2.00;;
56425;SDS011;42330;43.620;3.856;2022-07-23T11:40:12;5.38;;;2.10;;
56425;SDS011;42330;43.620;3.856;2022-07-23T11:42:50;4.53;;;2.00;;
56425;SDS011;42330;43.620;3.856;2022-07-23T11:45:16;6.80;;;2.33;;
56425;SDS011;42330;43.620;3.856;2022-07-23T11:47:42;4.15;;;2.05;;
56425;SDS011;42330;43.620;3.856;2022-07-23T11:50:08;4.97;;;2.00;;
56425;SDS011;42330;43.620;3.856;2022-07-23T11:52:34;4.50;;;2.15;;
56425;SDS011;42330;43.620;3.856;2022-07-23T11:55:04;5.93;;;2.00;;
56425;SDS011;42330;43.620;3.856;2022-07-23T11:57:32;7.45;;;2.03;;
56425;SDS011;42330;43.620;3.856;2022-07-23T12:00:08;5.65;;;2.00;;
56425;SDS011;42330;43.620;3.856;2022-07-23T12:02:36;5.22;;;2.10;;
56425;SDS011;42330;43.620;3.856;2022-07-23T12:05:03;4.35;;;2.10;;
56425;SDS011;42330;43.620;3.856;2022-07-23T12:07:36;7.10;;;2.25;;
56425;SDS011;42330;43.620;3.856;2022-07-23T12:12:41;35.40;;;3.40;;
56425;SDS011;42330;43.620;3.856;2022-07-23T12:15:25;8.77;;;2.40;;
56425;SDS011;42330;43.620;3.856;2022-07-23T12:17:54;5.00;;;2.00;;
56425;SDS011;42330;43.620;3.856;2022-07-23T12:20:24;4.30;;;2.00;;
56425;SDS011;42330;43.620;3.856;2022-07-23T12:22:53;4.82;;;2.00;;
56425;SDS011;42330;43.620;3.856;2022-07-23T12:25:23;7.63;;;1.92;;
56425;SDS011;42330;43.620;3.856;2022-07-23T12:28:09;5.93;;;2.05;;
56425;SDS011;42330;43.620;3.856;2022-07-23T12:30:39;5.60;;;2.03;;
56425;SDS011;42330;43.620;3.856;2022-07-23T12:33:11;6.60;;;1.90;;
56425;SDS011;42330;43.620;3.856;2022-07-23T12:35:42;11.10;;;2.05;;
56425;SDS011;42330;43.620;3.856;2022-07-23T12:38:17;7.50;;;2.10;;
56425;SDS011;42330;43.620;3.856;2022-07-23T12:40:45;5.15;;;2.03;;
56425;SDS011;42330;43.620;3.856;2022-07-23T12:43:23;3.97;;;1.70;;
56425;SDS011;42330;43.620;3.856;2022-07-23T12:45:50;4.82;;;2.03;;
56425;SDS011;42330;43.620;3.856;2022-07-23T12:48:22;4.18;;;2.00;;
56425;SDS011;42330;43.620;3.856;2022-07-23T12:51:04;5.85;;;2.00;;
56425;SDS011;42330;43.620;3.856;2022-07-23T12:53:43;10.55;;;1.95;;
56425;SDS011;42330;43.620;3.856;2022-07-23T12:56:26;5.80;;;2.10;;
56425;SDS011;42330;43.620;3.856;2022-07-23T13:03:54;5.55;;;2.08;;
56425;SDS011;42330;43.620;3.856;2022-07-23T13:06:34;7.22;;;2.10;;
56425;SDS011;42330;43.620;3.856;2022-07-23T13:09:08;6.90;;;1.80;;
56425;SDS011;42330;43.620;3.856;2022-07-23T13:11:35;6.90;;;1.92;;
56425;SDS011;42330;43.620;3.856;2022-07-23T13:14:01;6.00;;;1.90;;
56425;SDS011;42330;43.620;3.856;2022-07-23T13:16:28;6.00;;;1.90;;
56425;SDS011;42330;43.620;3.856;2022-07-23T13:18:55;3.92;;;1.83;;
56425;SDS011;42330;43.620;3.856;2022-07-23T13:21:24;3.72;;;1.80;;
56425;SDS011;42330;43.620;3.856;2022-07-23T13:23:50;6.90;;;1.83;;
56425;SDS011;42330;43.620;3.856;2022-07-23T13:26:16;9.25;;;1.77;;
56425;SDS011;42330;43.620;3.856;2022-07-23T13:28:41;2.88;;;1.60;;
56425;SDS011;42330;43.620;3.856;2022-07-23T13:31:07;3.85;;;1.50;;
56425;SDS011;42330;43.620;3.856;2022-07-23T13:33:33;5.97;;;1.70;;
56425;SDS011;42330;43.620;3.856;2022-07-23T13:35:59;5.28;;;1.83;;
56425;SDS011;42330;43.620;3.856;2022-07-23T13:38:25;3.22;;;1.70;;
56425;SDS011;42330;43.620;3.856;2022-07-23T13:40:51;5.05;;;1.73;;
56425;SDS011;42330;43.620;3.856;2022-07-23T13:43:18;4.30;;;1.63;;
56425;SDS011;42330;43.620;3.856;2022-07-23T13:45:45;5.22;;;1.70;;
56425;SDS011;42330;43.620;3.856;2022-07-23T13:48:11;6.40;;;1.80;;
56425;SDS011;42330;43.620;3.856;2022-07-23T13:50:38;3.58;;;1.80;;
56425;SDS011;42330;43.620;3.856;2022-07-23T13:53:05;5.72;;;1.75;;
56425;SDS011;42330;43.620;3.856;2022-07-23T13:55:34;4.70;;;1.70;;
56425;SDS011;42330;43.620;3.856;2022-07-23T13:58:00;4.78;;;1.63;;
56425;SDS011;42330;43.620;3.856;2022-07-23T14:00:27;7.82;;;1.88;;
56425;SDS011;42330;43.620;3.856;2022-07-23T14:02:53;3.92;;;1.70;;
56425;SDS011;42330;43.620;3.856;2022-07-23T14:05:19;6.95;;;2.00;;
56425;SDS011;42330;43.620;3.856;2022-07-23T14:07:45;5.72;;;1.80;;
56425;SDS011;42330;43.620;3.856;2022-07-23T14:10:14;4.00;;;1.90;;
56425;SDS011;42330;43.620;3.856;2022-07-23T14:12:41;10.27;;;1.85;;
56425;SDS011;42330;43.620;3.856;2022-07-23T14:15:07;7.50;;;1.70;;
56425;SDS011;42330;43.620;3.856;2022-07-23T14:17:36;6.22;;;1.98;;
56425;SDS011;42330;43.620;3.856;2022-07-23T14:20:04;9.07;;;1.90;;
56425;SDS011;42330;43.620;3.856;2022-07-23T14:22:31;8.75;;;1.70;;
56425;SDS011;42330;43.620;3.856;2022-07-23T14:24:57;6.68;;;1.80;;
56425;SDS011;42330;43.620;3.856;2022-07-23T14:27:23;5.35;;;1.52;;
56425;SDS011;42330;43.620;3.856;2022-07-23T14:29:50;4.95;;;1.92;;
56425;SDS011;42330;43.620;3.856;2022-07-23T14:32:17;5.43;;;1.95;;
56425;SDS011;42330;43.620;3.856;2022-07-23T14:34:42;9.60;;;1.75;;
56425;SDS011;42330;43.620;3.856;2022-07-23T14:37:09;6.95;;;1.90;;
56425;SDS011;42330;43.620;3.856;2022-07-23T14:39:36;6.90;;;1.50;;
56425;SDS011;42330;43.620;3.856;2022-07-23T14:42:02;6.43;;;2.00;;
56425;SDS011;42330;43.620;3.856;2022-07-23T14:44:28;5.70;;;1.80;;
56425;SDS011;42330;43.620;3.856;2022-07-23T14:46:54;4.63;;;2.05;;
56425;SDS011;42330;43.620;3.856;2022-07-23T14:49:20;6.30;;;1.80;;
56425;SDS011;42330;43.620;3.856;2022-07-23T14:51:46;5.72;;;1.67;;
56425;SDS011;42330;43.620;3.856;2022-07-23T14:54:11;9.20;;;1.85;;
56425;SDS011;42330;43.620;3.856;2022-07-23T14:56:38;5.75;;;1.60;;
56425;SDS011;42330;43.620;3.856;2022-07-23T14:59:05;5.05;;;1.90;;
56425;SDS011;42330;43.620;3.856;2022-07-23T15:01:31;6.47;;;1.83;;
56425;SDS011;42330;43.620;3.856;2022-07-23T15:03:57;5.10;;;1.73;;
56425;SDS011;42330;43.620;3.856;2022-07-23T15:06:23;8.27;;;1.70;;
56425;SDS011;42330;43.620;3.856;2022-07-23T15:08:49;5.43;;;1.70;;
56425;SDS011;42330;43.620;3.856;2022-07-23T15:11:15;4.57;;;1.80;;
56425;SDS011;42330;43.620;3.856;2022-07-23T15:13:41;6.00;;;1.77;;
56425;SDS011;42330;43.620;3.856;2022-07-23T15:16:06;8.15;;;2.20;;
56425;SDS011;42330;43.620;3.856;2022-07-23T15:18:33;6.32;;;2.05;;
56425;SDS011;42330;43.620;3.856;2022-07-23T15:20:59;6.07;;;2.03;;
56425;SDS011;42330;43.620;3.856;2022-07-23T15:23:26;8.20;;;2.00;;
56425;SDS011;42330;43.620;3.856;2022-07-23T15:25:53;9.95;;;2.10;;
56425;SDS011;42330;43.620;3.856;2022-07-23T15:28:20;5.75;;;1.83;;
56425;SDS011;42330;43.620;3.856;2022-07-23T15:30:46;6.13;;;2.03;;